sensor_id;sensor_type;location;lat;lon;timestamp;temperature;humidity
15103;DHT22;7652;53.584;9.998;2022-12-05T00:00:05;6.20;99.90
15103;DHT22;7652;53.584;9.998;2022-12-05T00:03:10;6.20;99.90
15103;DHT22;7652;53.584;9.998;2022-12-05T00:06:13;6.20;99.90
15103;DHT22;7652;53.584;9.998;2022-12-05T00:09:17;6.10;99.90
15103;DHT22;7652;53.584;9.998;2022-12-05T00:12:20;6.10;99.90
15103;DHT22;7652;53.584;9.998;2022-12-05T00:15:23;6.10;99.90
15103;DHT22;7652;53.584;9.998;2022-12-05T00:18:27;6.00;99.90
15103;DHT22;7652;53.584;9.998;2022-12-05T00:21:32;6.00;99.90
15103;DHT22;7652;53.584;9.998;2022-12-05T00:24:35;6.10;99.90
15103;DHT22;7652;53.584;9.998;2022-12-05T00:27:38;6.00;99.90
15103;DHT22;7652;53.584;9.998;2022-12-05T00:30:41;6.10;99.90
15103;DHT22;7652;53.584;9.998;2022-12-05T00:33:46;6.10;99.90
15103;DHT22;7652;53.584;9.998;2022-12-05T00:36:49;6.10;99.90
15103;DHT22;7652;53.584;9.998;2022-12-05T00:39:52;6.10;99.90
15103;DHT22;7652;53.584;9.998;2022-12-05T00:42:55;6.10;99.90
15103;DHT22;7652;53.584;9.998;2022-12-05T00:46:00;6.10;99.90
15103;DHT22;7652;53.584;9.998;2022-12-05T00:49:06;6.10;99.90
15103;DHT22;7652;53.584;9.998;2022-12-05T00:52:09;6.20;99.90
15103;DHT22;7652;53.584;9.998;2022-12-05T00:55:12;6.30;99.90
15103;DHT22;7652;53.584;9.998;2022-12-05T00:58:15;6.30;99.90
15103;DHT22;7652;53.584;9.998;2022-12-05T01:01:20;6.20;99.90
15103;DHT22;7652;53.584;9.998;2022-12-05T01:04:25;6.20;99.90
15103;DHT22;7652;53.584;9.998;2022-12-05T01:07:28;6.20;99.90
15103;DHT22;7652;53.584;9.998;2022-12-05T01:10:31;6.30;99.90
15103;DHT22;7652;53.584;9.998;2022-12-05T01:13:34;6.30;99.90
15103;DHT22;7652;53.584;9.998;2022-12-05T01:16:39;6.20;99.90
15103;DHT22;7652;53.584;9.998;2022-12-05T01:19:43;6.30;99.90
15103;DHT22;7652;53.584;9.998;2022-12-05T01:22:46;6.30;99.90
15103;DHT22;7652;53.584;9.998;2022-12-05T01:25:51;6.30;99.90
15103;DHT22;7652;53.584;9.998;2022-12-05T01:28:54;6.30;99.90
15103;DHT22;7652;53.584;9.998;2022-12-05T01:31:57;6.30;99.90
15103;DHT22;7652;53.584;9.998;2022-12-05T01:35:02;6.30;99.90
15103;DHT22;7652;53.584;9.998;2022-12-05T01:38:06;6.40;99.90
15103;DHT22;7652;53.584;9.998;2022-12-05T01:41:12;6.40;99.90
15103;DHT22;7652;53.584;9.998;2022-12-05T01:47:53;6.40;99.90
15103;DHT22;7652;53.584;9.998;2022-12-05T01:50:58;6.50;99.90
15103;DHT22;7652;53.584;9.998;2022-12-05T01:54:03;6.40;99.90
15103;DHT22;7652;53.584;9.998;2022-12-05T01:57:09;6.30;99.90
15103;DHT22;7652;53.584;9.998;2022-12-05T02:00:16;6.40;99.90
15103;DHT22;7652;53.584;9.998;2022-12-05T02:03:19;6.50;99.90
15103;DHT22;7652;53.584;9.998;2022-12-05T02:06:26;6.40;99.90
15103;DHT22;7652;53.584;9.998;2022-12-05T02:09:29;6.50;99.90
15103;DHT22;7652;53.584;9.998;2022-12-05T02:12:32;6.50;99.90
15103;DHT22;7652;53.584;9.998;2022-12-05T02:15:39;6.50;99.90
15103;DHT22;7652;53.584;9.998;2022-12-05T02:18:53;6.50;99.90
15103;DHT22;7652;53.584;9.998;2022-12-05T02:22:39;6.60;99.90
15103;DHT22;7652;53.584;9.998;2022-12-05T02:30:02;6.50;99.90
15103;DHT22;7652;53.584;9.998;2022-12-05T02:33:10;6.50;99.90
15103;DHT22;7652;53.584;9.998;2022-12-05T02:36:23;6.60;99.90
15103;DHT22;7652;53.584;9.998;2022-12-05T02:39:36;6.50;99.90
15103;DHT22;7652;53.584;9.998;2022-12-05T02:42:46;6.60;99.90
15103;DHT22;7652;53.584;9.998;2022-12-05T02:45:55;6.60;99.90
15103;DHT22;7652;53.584;9.998;2022-12-05T02:49:04;6.60;99.90
15103;DHT22;7652;53.584;9.998;2022-12-05T02:52:12;6.60;99.90
15103;DHT22;7652;53.584;9.998;2022-12-05T02:55:17;6.60;99.90
15103;DHT22;7652;53.584;9.998;2022-12-05T02:58:23;6.60;99.90
15103;DHT22;7652;53.584;9.998;2022-12-05T03:01:31;6.50;99.90
15103;DHT22;7652;53.584;9.998;2022-12-05T03:04:34;6.50;99.90
15103;DHT22;7652;53.584;9.998;2022-12-05T03:07:39;6.50;99.90
15103;DHT22;7652;53.584;9.998;2022-12-05T03:10:46;6.50;99.90
15103;DHT22;7652;53.584;9.998;2022-12-05T03:13:53;6.60;99.90
15103;DHT22;7652;53.584;9.998;2022-12-05T03:16:59;6.60;99.90
15103;DHT22;7652;53.584;9.998;2022-12-05T03:20:07;6.50;99.90
15103;DHT22;7652;53.584;9.998;2022-12-05T03:23:16;6.50;99.90
15103;DHT22;7652;53.584;9.998;2022-12-05T03:26:31;6.50;99.90
15103;DHT22;7652;53.584;9.998;2022-12-05T03:29:41;6.50;99.90
15103;DHT22;7652;53.584;9.998;2022-12-05T03:32:52;6.50;99.90
15103;DHT22;7652;53.584;9.998;2022-12-05T03:36:02;6.50;99.90
15103;DHT22;7652;53.584;9.998;2022-12-05T03:39:10;6.60;99.90
15103;DHT22;7652;53.584;9.998;2022-12-05T03:42:17;6.70;99.90
15103;DHT22;7652;53.584;9.998;2022-12-05T03:45:26;6.60;99.90
15103;DHT22;7652;53.584;9.998;2022-12-05T03:48:36;6.60;99.90
15103;DHT22;7652;53.584;9.998;2022-12-05T03:51:44;6.60;99.90
15103;DHT22;7652;53.584;9.998;2022-12-05T03:54:55;6.60;99.90
15103;DHT22;7652;53.584;9.998;2022-12-05T03:58:01;6.60;99.90
15103;DHT22;7652;53.584;9.998;2022-12-05T04:01:06;6.70;99.90
15103;DHT22;7652;53.584;9.998;2022-12-05T04:04:14;6.70;99.90
15103;DHT22;7652;53.584;9.998;2022-12-05T04:07:19;6.80;99.90
15103;DHT22;7652;53.584;9.998;2022-12-05T04:10:26;6.70;99.90
15103;DHT22;7652;53.584;9.998;2022-12-05T04:13:33;6.70;99.90
15103;DHT22;7652;53.584;9.998;2022-12-05T04:16:41;6.70;99.90
15103;DHT22;7652;53.584;9.998;2022-12-05T04:20:08;6.70;99.90
15103;DHT22;7652;53.584;9.998;2022-12-05T04:23:29;6.70;99.90
15103;DHT22;7652;53.584;9.998;2022-12-05T04:26:33;6.70;99.90
15103;DHT22;7652;53.584;9.998;2022-12-05T04:29:53;6.60;99.90
15103;DHT22;7652;53.584;9.998;2022-12-05T04:33:01;6.60;99.90
15103;DHT22;7652;53.584;9.998;2022-12-05T04:36:12;6.50;99.90
15103;DHT22;7652;53.584;9.998;2022-12-05T04:39:19;6.50;99.90
15103;DHT22;7652;53.584;9.998;2022-12-05T04:42:26;6.50;99.90
15103;DHT22;7652;53.584;9.998;2022-12-05T04:45:31;6.50;99.90
15103;DHT22;7652;53.584;9.998;2022-12-05T04:48:37;6.60;99.90
15103;DHT22;7652;53.584;9.998;2022-12-05T04:51:44;6.60;99.90
15103;DHT22;7652;53.584;9.998;2022-12-05T04:54:52;6.60;99.90
15103;DHT22;7652;53.584;9.998;2022-12-05T04:58:02;6.60;99.90
15103;DHT22;7652;53.584;9.998;2022-12-05T05:01:10;6.50;99.90
15103;DHT22;7652;53.584;9.998;2022-12-05T05:04:18;6.50;99.90
15103;DHT22;7652;53.584;9.998;2022-12-05T05:07:24;6.60;99.90
15103;DHT22;7652;53.584;9.998;2022-12-05T05:10:34;6.50;99.90
15103;DHT22;7652;53.584;9.998;2022-12-05T05:13:39;6.50;99.90
15103;DHT22;7652;53.584;9.998;2022-12-05T05:16:42;6.40;99.90
15103;DHT22;7652;53.584;9.998;2022-12-05T05:19:46;6.50;99.90
15103;DHT22;7652;53.584;9.998;2022-12-05T05:22:51;6.50;99.90
15103;DHT22;7652;53.584;9.998;2022-12-05T05:25:55;6.40;99.90
15103;DHT22;7652;53.584;9.998;2022-12-05T05:28:58;6.40;99.90
15103;DHT22;7652;53.584;9.998;2022-12-05T05:32:01;6.40;99.90
15103;DHT22;7652;53.584;9.998;2022-12-05T05:35:05;6.30;99.90
15103;DHT22;7652;53.584;9.998;2022-12-05T05:38:09;6.20;99.90
15103;DHT22;7652;53.584;9.998;2022-12-05T05:41:13;6.30;99.90
15103;DHT22;7652;53.584;9.998;2022-12-05T05:44:17;6.30;99.90
15103;DHT22;7652;53.584;9.998;2022-12-05T05:47:19;6.40;99.90
15103;DHT22;7652;53.584;9.998;2022-12-05T05:50:23;6.50;99.90
15103;DHT22;7652;53.584;9.998;2022-12-05T05:53:27;6.50;99.90
15103;DHT22;7652;53.584;9.998;2022-12-05T05:56:30;6.50;99.90
15103;DHT22;7652;53.584;9.998;2022-12-05T05:59:33;6.40;99.90
15103;DHT22;7652;53.584;9.998;2022-12-05T06:02:36;6.40;99.90
15103;DHT22;7652;53.584;9.998;2022-12-05T06:05:40;6.40;99.90
15103;DHT22;7652;53.584;9.998;2022-12-05T06:08:44;6.40;99.90
15103;DHT22;7652;53.584;9.998;2022-12-05T06:11:47;6.40;99.90
15103;DHT22;7652;53.584;9.998;2022-12-05T06:14:51;6.40;99.90
15103;DHT22;7652;53.584;9.998;2022-12-05T06:17:55;6.40;99.90
15103;DHT22;7652;53.584;9.998;2022-12-05T06:20:58;6.30;99.90
15103;DHT22;7652;53.584;9.998;2022-12-05T06:24:03;6.10;99.90
15103;DHT22;7652;53.584;9.998;2022-12-05T06:27:06;6.00;99.90
15103;DHT22;7652;53.584;9.998;2022-12-05T06:30:10;6.10;99.90
15103;DHT22;7652;53.584;9.998;2022-12-05T06:33:13;6.20;99.90
15103;DHT22;7652;53.584;9.998;2022-12-05T06:36:19;6.20;99.90
15103;DHT22;7652;53.584;9.998;2022-12-05T06:39:23;6.20;99.90
15103;DHT22;7652;53.584;9.998;2022-12-05T06:42:26;6.20;99.90
15103;DHT22;7652;53.584;9.998;2022-12-05T06:45:29;6.30;99.90
15103;DHT22;7652;53.584;9.998;2022-12-05T06:48:32;6.20;99.90
15103;DHT22;7652;53.584;9.998;2022-12-05T06:51:36;6.30;99.90
15103;DHT22;7652;53.584;9.998;2022-12-05T06:54:40;6.30;99.90
15103;DHT22;7652;53.584;9.998;2022-12-05T06:57:43;6.30;99.90
15103;DHT22;7652;53.584;9.998;2022-12-05T07:00:46;6.20;99.90
15103;DHT22;7652;53.584;9.998;2022-12-05T07:04:10;6.20;99.90
15103;DHT22;7652;53.584;9.998;2022-12-05T07:07:14;6.30;99.90
15103;DHT22;7652;53.584;9.998;2022-12-05T07:10:18;6.30;99.90
15103;DHT22;7652;53.584;9.998;2022-12-05T07:13:21;6.30;99.90
15103;DHT22;7652;53.584;9.998;2022-12-05T07:16:24;6.30;99.90
15103;DHT22;7652;53.584;9.998;2022-12-05T07:19:27;6.40;99.90
15103;DHT22;7652;53.584;9.998;2022-12-05T07:22:30;6.20;99.90
15103;DHT22;7652;53.584;9.998;2022-12-05T07:25:38;6.20;99.90
15103;DHT22;7652;53.584;9.998;2022-12-05T07:28:41;6.20;99.90
15103;DHT22;7652;53.584;9.998;2022-12-05T07:31:45;6.10;99.90
15103;DHT22;7652;53.584;9.998;2022-12-05T07:34:48;6.10;99.90
15103;DHT22;7652;53.584;9.998;2022-12-05T07:37:56;6.10;99.90
15103;DHT22;7652;53.584;9.998;2022-12-05T07:41:03;6.00;99.90
15103;DHT22;7652;53.584;9.998;2022-12-05T07:44:13;6.00;99.90
15103;DHT22;7652;53.584;9.998;2022-12-05T07:47:16;6.00;99.90
15103;DHT22;7652;53.584;9.998;2022-12-05T07:50:19;5.90;99.90
15103;DHT22;7652;53.584;9.998;2022-12-05T07:53:22;5.70;99.90
15103;DHT22;7652;53.584;9.998;2022-12-05T07:56:27;5.70;99.90
15103;DHT22;7652;53.584;9.998;2022-12-05T07:59:30;5.70;99.90
15103;DHT22;7652;53.584;9.998;2022-12-05T08:02:33;5.70;99.90
15103;DHT22;7652;53.584;9.998;2022-12-05T08:05:41;5.80;99.90
15103;DHT22;7652;53.584;9.998;2022-12-05T08:08:45;5.90;99.90
15103;DHT22;7652;53.584;9.998;2022-12-05T08:11:52;5.90;99.90
15103;DHT22;7652;53.584;9.998;2022-12-05T08:14:55;5.80;99.90
15103;DHT22;7652;53.584;9.998;2022-12-05T08:17:58;5.80;99.90
15103;DHT22;7652;53.584;9.998;2022-12-05T08:21:02;5.80;99.90
15103;DHT22;7652;53.584;9.998;2022-12-05T08:24:06;5.70;99.90
15103;DHT22;7652;53.584;9.998;2022-12-05T08:27:10;5.70;99.90
15103;DHT22;7652;53.584;9.998;2022-12-05T08:30:13;5.70;99.90
15103;DHT22;7652;53.584;9.998;2022-12-05T08:33:16;5.70;99.90
15103;DHT22;7652;53.584;9.998;2022-12-05T08:36:19;5.70;99.90
15103;DHT22;7652;53.584;9.998;2022-12-05T08:39:22;5.70;99.90
15103;DHT22;7652;53.584;9.998;2022-12-05T08:42:28;5.60;99.90
15103;DHT22;7652;53.584;9.998;2022-12-05T08:45:31;5.60;99.90
15103;DHT22;7652;53.584;9.998;2022-12-05T08:48:35;5.70;99.90
15103;DHT22;7652;53.584;9.998;2022-12-05T08:51:38;5.70;99.90
15103;DHT22;7652;53.584;9.998;2022-12-05T08:54:42;5.70;99.90
15103;DHT22;7652;53.584;9.998;2022-12-05T08:57:46;5.70;99.90
15103;DHT22;7652;53.584;9.998;2022-12-05T09:00:49;5.70;99.90
15103;DHT22;7652;53.584;9.998;2022-12-05T09:03:52;5.70;99.90
15103;DHT22;7652;53.584;9.998;2022-12-05T09:06:55;5.60;99.90
15103;DHT22;7652;53.584;9.998;2022-12-05T09:09:58;5.60;99.90
15103;DHT22;7652;53.584;9.998;2022-12-05T09:13:03;5.70;99.90
15103;DHT22;7652;53.584;9.998;2022-12-05T09:16:07;5.70;99.90
15103;DHT22;7652;53.584;9.998;2022-12-05T09:19:13;5.70;99.90
15103;DHT22;7652;53.584;9.998;2022-12-05T09:22:16;5.70;99.90
15103;DHT22;7652;53.584;9.998;2022-12-05T09:25:20;5.50;99.90
15103;DHT22;7652;53.584;9.998;2022-12-05T09:28:24;5.40;99.90
15103;DHT22;7652;53.584;9.998;2022-12-05T09:31:28;5.40;99.90
15103;DHT22;7652;53.584;9.998;2022-12-05T09:34:31;5.30;99.90
15103;DHT22;7652;53.584;9.998;2022-12-05T09:37:35;5.40;99.90
15103;DHT22;7652;53.584;9.998;2022-12-05T09:40:41;5.30;99.90
15103;DHT22;7652;53.584;9.998;2022-12-05T09:43:50;5.10;99.90
15103;DHT22;7652;53.584;9.998;2022-12-05T09:46:57;5.10;99.90
15103;DHT22;7652;53.584;9.998;2022-12-05T09:50:12;5.20;99.90
15103;DHT22;7652;53.584;9.998;2022-12-05T09:53:23;5.20;99.90
15103;DHT22;7652;53.584;9.998;2022-12-05T09:56:31;5.30;99.90
15103;DHT22;7652;53.584;9.998;2022-12-05T09:59:35;5.10;99.90
15103;DHT22;7652;53.584;9.998;2022-12-05T10:02:46;5.10;99.90
15103;DHT22;7652;53.584;9.998;2022-12-05T10:06:00;5.00;99.90
15103;DHT22;7652;53.584;9.998;2022-12-05T10:09:20;5.10;99.90
15103;DHT22;7652;53.584;9.998;2022-12-05T10:12:50;5.10;99.90
15103;DHT22;7652;53.584;9.998;2022-12-05T10:15:59;5.20;99.90
15103;DHT22;7652;53.584;9.998;2022-12-05T10:19:10;5.20;99.90
15103;DHT22;7652;53.584;9.998;2022-12-05T10:22:15;5.30;99.90
15103;DHT22;7652;53.584;9.998;2022-12-05T10:25:23;5.20;99.90
15103;DHT22;7652;53.584;9.998;2022-12-05T10:28:30;5.20;99.90
15103;DHT22;7652;53.584;9.998;2022-12-05T10:31:37;5.20;99.90
15103;DHT22;7652;53.584;9.998;2022-12-05T10:34:41;5.30;99.90
15103;DHT22;7652;53.584;9.998;2022-12-05T10:37:47;5.20;99.90
15103;DHT22;7652;53.584;9.998;2022-12-05T10:40:54;5.30;99.90
15103;DHT22;7652;53.584;9.998;2022-12-05T10:43:58;5.30;99.90
15103;DHT22;7652;53.584;9.998;2022-12-05T10:47:03;5.30;99.90
15103;DHT22;7652;53.584;9.998;2022-12-05T10:50:19;5.30;99.90
15103;DHT22;7652;53.584;9.998;2022-12-05T10:53:25;5.30;99.90
15103;DHT22;7652;53.584;9.998;2022-12-05T10:56:39;5.30;99.90
15103;DHT22;7652;53.584;9.998;2022-12-05T10:59:45;5.30;99.90
15103;DHT22;7652;53.584;9.998;2022-12-05T11:02:51;5.40;99.90
15103;DHT22;7652;53.584;9.998;2022-12-05T11:05:55;5.30;99.90
15103;DHT22;7652;53.584;9.998;2022-12-05T11:09:02;5.40;99.90
15103;DHT22;7652;53.584;9.998;2022-12-05T11:12:15;5.40;99.90
15103;DHT22;7652;53.584;9.998;2022-12-05T11:15:21;5.50;99.90
15103;DHT22;7652;53.584;9.998;2022-12-05T11:18:29;5.40;99.90
15103;DHT22;7652;53.584;9.998;2022-12-05T11:21:41;5.30;99.90
15103;DHT22;7652;53.584;9.998;2022-12-05T11:24:44;5.20;99.90
15103;DHT22;7652;53.584;9.998;2022-12-05T11:27:47;5.20;99.90
15103;DHT22;7652;53.584;9.998;2022-12-05T11:30:55;5.20;99.90
15103;DHT22;7652;53.584;9.998;2022-12-05T11:34:18;5.10;99.90
15103;DHT22;7652;53.584;9.998;2022-12-05T11:37:25;5.20;99.90
15103;DHT22;7652;53.584;9.998;2022-12-05T11:40:34;5.20;99.90
15103;DHT22;7652;53.584;9.998;2022-12-05T11:43:51;5.10;99.90
15103;DHT22;7652;53.584;9.998;2022-12-05T11:47:01;5.10;99.90
15103;DHT22;7652;53.584;9.998;2022-12-05T11:50:22;5.00;99.90
15103;DHT22;7652;53.584;9.998;2022-12-05T11:56:59;4.90;99.90
15103;DHT22;7652;53.584;9.998;2022-12-05T12:00:11;4.90;99.90
15103;DHT22;7652;53.584;9.998;2022-12-05T12:07:03;5.20;99.90
15103;DHT22;7652;53.584;9.998;2022-12-05T12:10:17;5.20;99.90
15103;DHT22;7652;53.584;9.998;2022-12-05T12:13:29;5.20;99.90
15103;DHT22;7652;53.584;9.998;2022-12-05T12:16:42;5.20;99.90
15103;DHT22;7652;53.584;9.998;2022-12-05T12:23:40;5.20;99.90
15103;DHT22;7652;53.584;9.998;2022-12-05T12:26:50;5.30;99.90
15103;DHT22;7652;53.584;9.998;2022-12-05T12:30:02;5.30;99.90
15103;DHT22;7652;53.584;9.998;2022-12-05T12:33:14;5.30;99.90
15103;DHT22;7652;53.584;9.998;2022-12-05T12:36:29;5.20;99.90
15103;DHT22;7652;53.584;9.998;2022-12-05T12:39:43;5.20;99.90
15103;DHT22;7652;53.584;9.998;2022-12-05T12:42:59;5.20;99.90
15103;DHT22;7652;53.584;9.998;2022-12-05T12:46:15;5.30;99.90
15103;DHT22;7652;53.584;9.998;2022-12-05T12:49:40;5.30;99.90
15103;DHT22;7652;53.584;9.998;2022-12-05T12:53:09;5.30;99.90
15103;DHT22;7652;53.584;9.998;2022-12-05T12:56:28;5.30;99.90
15103;DHT22;7652;53.584;9.998;2022-12-05T12:59:50;5.30;99.90
15103;DHT22;7652;53.584;9.998;2022-12-05T13:03:01;5.30;99.90
15103;DHT22;7652;53.584;9.998;2022-12-05T13:06:09;5.20;99.90
15103;DHT22;7652;53.584;9.998;2022-12-05T13:09:17;5.20;99.90
15103;DHT22;7652;53.584;9.998;2022-12-05T13:12:28;5.30;99.90
15103;DHT22;7652;53.584;9.998;2022-12-05T13:15:33;5.20;99.90
15103;DHT22;7652;53.584;9.998;2022-12-05T13:18:38;5.20;99.90
15103;DHT22;7652;53.584;9.998;2022-12-05T13:21:41;5.10;99.90
15103;DHT22;7652;53.584;9.998;2022-12-05T13:24:44;5.20;99.90
15103;DHT22;7652;53.584;9.998;2022-12-05T13:27:56;5.10;99.90
15103;DHT22;7652;53.584;9.998;2022-12-05T13:31:01;5.10;99.90
15103;DHT22;7652;53.584;9.998;2022-12-05T13:34:06;5.20;99.90
15103;DHT22;7652;53.584;9.998;2022-12-05T13:37:30;5.20;99.90
15103;DHT22;7652;53.584;9.998;2022-12-05T13:40:52;5.30;99.90
15103;DHT22;7652;53.584;9.998;2022-12-05T13:44:14;5.40;99.90
15103;DHT22;7652;53.584;9.998;2022-12-05T13:47:29;5.40;99.90
15103;DHT22;7652;53.584;9.998;2022-12-05T13:50:39;5.30;99.90
15103;DHT22;7652;53.584;9.998;2022-12-05T13:53:46;5.30;99.90
15103;DHT22;7652;53.584;9.998;2022-12-05T13:56:52;5.20;99.90
15103;DHT22;7652;53.584;9.998;2022-12-05T14:00:03;5.20;99.90
15103;DHT22;7652;53.584;9.998;2022-12-05T14:03:53;5.20;99.90
15103;DHT22;7652;53.584;9.998;2022-12-05T14:06:58;5.10;99.90
15103;DHT22;7652;53.584;9.998;2022-12-05T14:10:01;5.10;99.90
15103;DHT22;7652;53.584;9.998;2022-12-05T14:13:37;5.20;99.90
15103;DHT22;7652;53.584;9.998;2022-12-05T14:16:44;5.30;99.90
15103;DHT22;7652;53.584;9.998;2022-12-05T14:19:58;5.20;99.90
15103;DHT22;7652;53.584;9.998;2022-12-05T14:23:14;5.20;99.90
15103;DHT22;7652;53.584;9.998;2022-12-05T14:26:30;5.10;99.90
15103;DHT22;7652;53.584;9.998;2022-12-05T14:29:37;5.10;99.90
15103;DHT22;7652;53.584;9.998;2022-12-05T14:32:45;5.10;99.90
15103;DHT22;7652;53.584;9.998;2022-12-05T14:35:50;5.10;99.90
15103;DHT22;7652;53.584;9.998;2022-12-05T14:38:54;5.20;99.90
15103;DHT22;7652;53.584;9.998;2022-12-05T14:41:58;5.10;99.90
15103;DHT22;7652;53.584;9.998;2022-12-05T14:45:22;5.00;99.90
15103;DHT22;7652;53.584;9.998;2022-12-05T14:48:30;5.00;99.90
15103;DHT22;7652;53.584;9.998;2022-12-05T14:51:44;4.90;99.90
15103;DHT22;7652;53.584;9.998;2022-12-05T14:55:01;4.90;99.90
15103;DHT22;7652;53.584;9.998;2022-12-05T14:58:11;5.00;99.90
15103;DHT22;7652;53.584;9.998;2022-12-05T15:01:21;4.90;99.90
15103;DHT22;7652;53.584;9.998;2022-12-05T15:04:31;4.90;99.90
15103;DHT22;7652;53.584;9.998;2022-12-05T15:07:37;4.90;99.90
15103;DHT22;7652;53.584;9.998;2022-12-05T15:10:41;4.90;99.90
15103;DHT22;7652;53.584;9.998;2022-12-05T15:13:46;4.90;99.90
15103;DHT22;7652;53.584;9.998;2022-12-05T15:16:51;4.80;99.90
15103;DHT22;7652;53.584;9.998;2022-12-05T15:20:00;4.80;99.90
15103;DHT22;7652;53.584;9.998;2022-12-05T15:26:44;4.70;99.90
15103;DHT22;7652;53.584;9.998;2022-12-05T15:29:53;4.70;99.90
15103;DHT22;7652;53.584;9.998;2022-12-05T15:32:57;4.60;99.90
15103;DHT22;7652;53.584;9.998;2022-12-05T15:36:02;4.60;99.90
15103;DHT22;7652;53.584;9.998;2022-12-05T15:39:17;4.60;99.90
15103;DHT22;7652;53.584;9.998;2022-12-05T15:42:23;4.60;99.90
15103;DHT22;7652;53.584;9.998;2022-12-05T15:45:31;4.40;99.90
15103;DHT22;7652;53.584;9.998;2022-12-05T15:48:34;4.40;99.90
15103;DHT22;7652;53.584;9.998;2022-12-05T15:51:38;4.60;99.90
15103;DHT22;7652;53.584;9.998;2022-12-05T15:54:42;4.60;99.90
15103;DHT22;7652;53.584;9.998;2022-12-05T15:57:49;4.70;99.90
15103;DHT22;7652;53.584;9.998;2022-12-05T16:00:57;4.80;99.90
15103;DHT22;7652;53.584;9.998;2022-12-05T16:04:05;4.60;99.90
15103;DHT22;7652;53.584;9.998;2022-12-05T16:07:12;4.60;99.90
15103;DHT22;7652;53.584;9.998;2022-12-05T16:10:17;4.60;99.90
15103;DHT22;7652;53.584;9.998;2022-12-05T16:13:26;4.70;99.90
15103;DHT22;7652;53.584;9.998;2022-12-05T16:16:32;4.60;99.90
15103;DHT22;7652;53.584;9.998;2022-12-05T16:19:36;4.50;99.90
15103;DHT22;7652;53.584;9.998;2022-12-05T16:22:45;4.50;99.90
15103;DHT22;7652;53.584;9.998;2022-12-05T16:25:49;4.60;99.90
15103;DHT22;7652;53.584;9.998;2022-12-05T16:28:56;4.60;99.90
15103;DHT22;7652;53.584;9.998;2022-12-05T16:32:04;4.60;99.90
15103;DHT22;7652;53.584;9.998;2022-12-05T16:35:30;4.60;99.90
15103;DHT22;7652;53.584;9.998;2022-12-05T16:38:35;4.60;99.90
15103;DHT22;7652;53.584;9.998;2022-12-05T16:41:39;4.60;99.90
15103;DHT22;7652;53.584;9.998;2022-12-05T16:44:57;4.60;99.90
15103;DHT22;7652;53.584;9.998;2022-12-05T16:48:13;4.50;99.90
15103;DHT22;7652;53.584;9.998;2022-12-05T16:51:19;4.50;99.90
15103;DHT22;7652;53.584;9.998;2022-12-05T16:54:29;4.60;99.90
15103;DHT22;7652;53.584;9.998;2022-12-05T16:57:32;4.50;99.90
15103;DHT22;7652;53.584;9.998;2022-12-05T17:00:35;4.50;99.90
15103;DHT22;7652;53.584;9.998;2022-12-05T17:03:38;4.30;99.90
15103;DHT22;7652;53.584;9.998;2022-12-05T17:06:41;4.30;99.90
15103;DHT22;7652;53.584;9.998;2022-12-05T17:09:45;4.30;99.90
15103;DHT22;7652;53.584;9.998;2022-12-05T17:12:49;4.40;99.90
15103;DHT22;7652;53.584;9.998;2022-12-05T17:15:52;4.50;99.90
15103;DHT22;7652;53.584;9.998;2022-12-05T17:18:55;4.60;99.90
15103;DHT22;7652;53.584;9.998;2022-12-05T17:21:58;4.60;99.90
15103;DHT22;7652;53.584;9.998;2022-12-05T17:25:12;4.60;99.90
15103;DHT22;7652;53.584;9.998;2022-12-05T17:28:19;4.60;99.90
15103;DHT22;7652;53.584;9.998;2022-12-05T17:31:24;4.60;99.90
15103;DHT22;7652;53.584;9.998;2022-12-05T17:34:27;4.60;99.90
15103;DHT22;7652;53.584;9.998;2022-12-05T17:37:30;4.50;99.90
15103;DHT22;7652;53.584;9.998;2022-12-05T17:40:36;4.50;99.90
15103;DHT22;7652;53.584;9.998;2022-12-05T17:43:39;4.60;99.90
15103;DHT22;7652;53.584;9.998;2022-12-05T17:46:42;4.40;99.90
15103;DHT22;7652;53.584;9.998;2022-12-05T17:49:45;4.50;99.90
15103;DHT22;7652;53.584;9.998;2022-12-05T17:52:50;4.50;99.90
15103;DHT22;7652;53.584;9.998;2022-12-05T17:55:55;4.50;99.90
15103;DHT22;7652;53.584;9.998;2022-12-05T17:58:58;4.50;99.90
15103;DHT22;7652;53.584;9.998;2022-12-05T18:02:08;4.50;99.90
15103;DHT22;7652;53.584;9.998;2022-12-05T18:05:13;4.60;99.90
15103;DHT22;7652;53.584;9.998;2022-12-05T18:08:16;4.50;99.90
15103;DHT22;7652;53.584;9.998;2022-12-05T18:11:21;4.50;99.90
15103;DHT22;7652;53.584;9.998;2022-12-05T18:14:24;4.50;99.90
15103;DHT22;7652;53.584;9.998;2022-12-05T18:17:29;4.50;99.90
15103;DHT22;7652;53.584;9.998;2022-12-05T18:20:33;4.60;99.90
15103;DHT22;7652;53.584;9.998;2022-12-05T18:23:37;4.60;99.90
15103;DHT22;7652;53.584;9.998;2022-12-05T18:26:41;4.60;99.90
15103;DHT22;7652;53.584;9.998;2022-12-05T18:29:46;4.60;99.90
15103;DHT22;7652;53.584;9.998;2022-12-05T18:32:49;4.70;99.90
15103;DHT22;7652;53.584;9.998;2022-12-05T18:35:52;4.60;99.90
15103;DHT22;7652;53.584;9.998;2022-12-05T18:38:55;4.60;99.90
15103;DHT22;7652;53.584;9.998;2022-12-05T18:42:01;4.60;99.90
15103;DHT22;7652;53.584;9.998;2022-12-05T18:45:05;4.60;99.90
15103;DHT22;7652;53.584;9.998;2022-12-05T18:48:08;4.60;99.90
15103;DHT22;7652;53.584;9.998;2022-12-05T18:51:31;4.60;99.90
15103;DHT22;7652;53.584;9.998;2022-12-05T18:54:34;4.60;99.90
15103;DHT22;7652;53.584;9.998;2022-12-05T18:57:39;4.70;99.90
15103;DHT22;7652;53.584;9.998;2022-12-05T19:00:42;4.70;99.90
15103;DHT22;7652;53.584;9.998;2022-12-05T19:03:45;4.70;99.90
15103;DHT22;7652;53.584;9.998;2022-12-05T19:06:50;4.80;99.90
15103;DHT22;7652;53.584;9.998;2022-12-05T19:09:53;4.80;99.90
15103;DHT22;7652;53.584;9.998;2022-12-05T19:12:58;4.70;99.90
15103;DHT22;7652;53.584;9.998;2022-12-05T19:16:01;4.80;99.90
15103;DHT22;7652;53.584;9.998;2022-12-05T19:19:06;4.70;99.90
15103;DHT22;7652;53.584;9.998;2022-12-05T19:22:09;4.70;99.90
15103;DHT22;7652;53.584;9.998;2022-12-05T19:25:12;4.70;99.90
15103;DHT22;7652;53.584;9.998;2022-12-05T19:28:17;4.80;99.90
15103;DHT22;7652;53.584;9.998;2022-12-05T19:31:21;4.80;99.90
15103;DHT22;7652;53.584;9.998;2022-12-05T19:34:25;4.80;99.90
15103;DHT22;7652;53.584;9.998;2022-12-05T19:37:28;4.80;99.90
15103;DHT22;7652;53.584;9.998;2022-12-05T19:40:31;4.80;99.90
15103;DHT22;7652;53.584;9.998;2022-12-05T19:43:36;4.80;99.90
15103;DHT22;7652;53.584;9.998;2022-12-05T19:46:40;4.80;99.90
15103;DHT22;7652;53.584;9.998;2022-12-05T19:49:42;4.90;99.90
15103;DHT22;7652;53.584;9.998;2022-12-05T19:52:45;4.70;99.90
15103;DHT22;7652;53.584;9.998;2022-12-05T19:55:49;4.70;99.90
15103;DHT22;7652;53.584;9.998;2022-12-05T19:58:55;4.80;99.90
15103;DHT22;7652;53.584;9.998;2022-12-05T20:01:58;4.80;99.90
15103;DHT22;7652;53.584;9.998;2022-12-05T20:05:01;4.90;99.90
15103;DHT22;7652;53.584;9.998;2022-12-05T20:08:05;5.00;99.90
15103;DHT22;7652;53.584;9.998;2022-12-05T20:11:09;5.00;99.90
15103;DHT22;7652;53.584;9.998;2022-12-05T20:14:14;5.00;99.90
15103;DHT22;7652;53.584;9.998;2022-12-05T20:17:17;5.00;99.90
15103;DHT22;7652;53.584;9.998;2022-12-05T20:20:21;5.00;99.90
15103;DHT22;7652;53.584;9.998;2022-12-05T20:23:25;5.00;99.90
15103;DHT22;7652;53.584;9.998;2022-12-05T20:26:29;5.00;99.90
15103;DHT22;7652;53.584;9.998;2022-12-05T20:29:34;5.00;99.90
15103;DHT22;7652;53.584;9.998;2022-12-05T20:32:39;5.00;99.90
15103;DHT22;7652;53.584;9.998;2022-12-05T20:35:42;5.00;99.90
15103;DHT22;7652;53.584;9.998;2022-12-05T20:38:46;5.00;99.90
15103;DHT22;7652;53.584;9.998;2022-12-05T20:41:49;5.00;99.90